sensor_id;sensor_type;location;lat;lon;timestamp;P1;durP1;ratioP1;P2;durP2;ratioP2
53642;SDS011;39546;45.534;12.048;2023-04-16T00:02:53;3.03;;;2.03;;
53642;SDS011;39546;45.534;12.048;2023-04-16T00:08:55;2.37;;;2.03;;
53642;SDS011;39546;45.534;12.048;2023-04-16T00:14:57;2.20;;;1.55;;
53642;SDS011;39546;45.534;12.048;2023-04-16T00:20:59;2.15;;;1.58;;
53642;SDS011;39546;45.534;12.048;2023-04-16T00:27:01;2.87;;;1.73;;
53642;SDS011;39546;45.534;12.048;2023-04-16T00:33:04;3.28;;;2.05;;
53642;SDS011;39546;45.534;12.048;2023-04-16T00:45:40;2.33;;;2.10;;
53642;SDS011;39546;45.534;12.048;2023-04-16T00:51:42;2.35;;;1.50;;
53642;SDS011;39546;45.534;12.048;2023-04-16T00:57:45;3.67;;;2.03;;
53642;SDS011;39546;45.534;12.048;2023-04-16T01:03:47;1.52;;;1.42;;
53642;SDS011;39546;45.534;12.048;2023-04-16T01:09:50;1.87;;;1.73;;
53642;SDS011;39546;45.534;12.048;2023-04-16T01:15:52;1.70;;;1.60;;
53642;SDS011;39546;45.534;12.048;2023-04-16T01:21:54;3.45;;;2.08;;
53642;SDS011;39546;45.534;12.048;2023-04-16T01:27:56;2.22;;;1.70;;
53642;SDS011;39546;45.534;12.048;2023-04-16T01:34:00;2.90;;;2.12;;
53642;SDS011;39546;45.534;12.048;2023-04-16T01:40:03;2.95;;;1.87;;
53642;SDS011;39546;45.534;12.048;2023-04-16T01:46:11;5.60;;;3.15;;
53642;SDS011;39546;45.534;12.048;2023-04-16T01:52:31;4.82;;;2.60;;
53642;SDS011;39546;45.534;12.048;2023-04-16T01:58:33;2.17;;;1.52;;
53642;SDS011;39546;45.534;12.048;2023-04-16T02:04:41;2.22;;;2.03;;
53642;SDS011;39546;45.534;12.048;2023-04-16T02:10:45;3.00;;;2.03;;
53642;SDS011;39546;45.534;12.048;2023-04-16T02:16:47;3.00;;;1.92;;
53642;SDS011;39546;45.534;12.048;2023-04-16T02:22:50;2.62;;;2.22;;
53642;SDS011;39546;45.534;12.048;2023-04-16T02:28:53;4.30;;;2.40;;
53642;SDS011;39546;45.534;12.048;2023-04-16T02:34:57;3.10;;;2.25;;
53642;SDS011;39546;45.534;12.048;2023-04-16T02:40:59;4.70;;;3.15;;
53642;SDS011;39546;45.534;12.048;2023-04-16T02:47:02;4.22;;;3.25;;
53642;SDS011;39546;45.534;12.048;2023-04-16T02:53:04;3.97;;;3.00;;
53642;SDS011;39546;45.534;12.048;2023-04-16T02:59:08;3.70;;;3.28;;
53642;SDS011;39546;45.534;12.048;2023-04-16T03:05:10;2.70;;;1.65;;
53642;SDS011;39546;45.534;12.048;2023-04-16T03:11:12;4.50;;;2.45;;
53642;SDS011;39546;45.534;12.048;2023-04-16T03:17:14;6.28;;;4.03;;
53642;SDS011;39546;45.534;12.048;2023-04-16T03:23:16;5.43;;;2.95;;
53642;SDS011;39546;45.534;12.048;2023-04-16T03:29:18;6.20;;;3.42;;
53642;SDS011;39546;45.534;12.048;2023-04-16T03:35:22;4.93;;;3.65;;
53642;SDS011;39546;45.534;12.048;2023-04-16T03:41:24;2.87;;;2.20;;
53642;SDS011;39546;45.534;12.048;2023-04-16T03:47:26;3.58;;;3.08;;
53642;SDS011;39546;45.534;12.048;2023-04-16T03:53:28;3.45;;;2.67;;
53642;SDS011;39546;45.534;12.048;2023-04-16T03:59:31;4.20;;;2.70;;
53642;SDS011;39546;45.534;12.048;2023-04-16T04:05:40;4.40;;;3.25;;
53642;SDS011;39546;45.534;12.048;2023-04-16T04:17:45;4.78;;;3.12;;
53642;SDS011;39546;45.534;12.048;2023-04-16T04:23:47;2.58;;;2.20;;
53642;SDS011;39546;45.534;12.048;2023-04-16T04:29:50;4.43;;;2.95;;
53642;SDS011;39546;45.534;12.048;2023-04-16T04:35:52;4.85;;;3.80;;
53642;SDS011;39546;45.534;12.048;2023-04-16T04:41:56;8.82;;;5.10;;
53642;SDS011;39546;45.534;12.048;2023-04-16T04:47:58;4.50;;;3.15;;
53642;SDS011;39546;45.534;12.048;2023-04-16T04:54:00;6.62;;;4.62;;
53642;SDS011;39546;45.534;12.048;2023-04-16T05:00:03;6.10;;;4.37;;
53642;SDS011;39546;45.534;12.048;2023-04-16T05:06:06;5.22;;;3.08;;
53642;SDS011;39546;45.534;12.048;2023-04-16T05:12:08;3.65;;;2.70;;
53642;SDS011;39546;45.534;12.048;2023-04-16T05:18:11;5.82;;;3.85;;
53642;SDS011;39546;45.534;12.048;2023-04-16T05:24:13;7.78;;;3.35;;
53642;SDS011;39546;45.534;12.048;2023-04-16T05:30:15;3.15;;;1.70;;
53642;SDS011;39546;45.534;12.048;2023-04-16T05:36:17;2.92;;;1.55;;
53642;SDS011;39546;45.534;12.048;2023-04-16T05:42:19;9.88;;;2.90;;
53642;SDS011;39546;45.534;12.048;2023-04-16T05:48:21;1.87;;;1.52;;
53642;SDS011;39546;45.534;12.048;2023-04-16T05:54:23;4.60;;;2.45;;
53642;SDS011;39546;45.534;12.048;2023-04-16T06:00:25;3.00;;;2.33;;
53642;SDS011;39546;45.534;12.048;2023-04-16T06:06:28;3.92;;;2.25;;
53642;SDS011;39546;45.534;12.048;2023-04-16T06:12:30;2.22;;;1.70;;
53642;SDS011;39546;45.534;12.048;2023-04-16T06:18:32;2.20;;;1.35;;
53642;SDS011;39546;45.534;12.048;2023-04-16T06:24:34;2.40;;;1.35;;
53642;SDS011;39546;45.534;12.048;2023-04-16T06:30:37;1.77;;;1.50;;
53642;SDS011;39546;45.534;12.048;2023-04-16T06:36:40;2.08;;;1.20;;
53642;SDS011;39546;45.534;12.048;2023-04-16T06:42:42;2.45;;;1.58;;
53642;SDS011;39546;45.534;12.048;2023-04-16T06:48:44;1.70;;;1.30;;
53642;SDS011;39546;45.534;12.048;2023-04-16T06:54:46;1.62;;;1.08;;
53642;SDS011;39546;45.534;12.048;2023-04-16T07:00:49;1.62;;;1.52;;
53642;SDS011;39546;45.534;12.048;2023-04-16T07:06:51;2.65;;;2.45;;
53642;SDS011;39546;45.534;12.048;2023-04-16T07:12:53;2.67;;;1.95;;
53642;SDS011;39546;45.534;12.048;2023-04-16T07:18:55;2.08;;;1.80;;
53642;SDS011;39546;45.534;12.048;2023-04-16T07:24:57;1.80;;;1.40;;
53642;SDS011;39546;45.534;12.048;2023-04-16T07:30:59;1.65;;;1.52;;
53642;SDS011;39546;45.534;12.048;2023-04-16T07:37:01;1.15;;;1.00;;
53642;SDS011;39546;45.534;12.048;2023-04-16T07:43:03;1.60;;;1.50;;
53642;SDS011;39546;45.534;12.048;2023-04-16T07:49:05;1.48;;;1.37;;
53642;SDS011;39546;45.534;12.048;2023-04-16T07:55:08;1.02;;;1.02;;
53642;SDS011;39546;45.534;12.048;2023-04-16T08:01:10;1.85;;;1.50;;
53642;SDS011;39546;45.534;12.048;2023-04-16T08:07:12;5.28;;;1.10;;
53642;SDS011;39546;45.534;12.048;2023-04-16T08:13:14;1.62;;;1.45;;
53642;SDS011;39546;45.534;12.048;2023-04-16T08:19:16;2.60;;;2.00;;
53642;SDS011;39546;45.534;12.048;2023-04-16T08:25:18;4.37;;;2.50;;
53642;SDS011;39546;45.534;12.048;2023-04-16T08:31:21;4.85;;;3.67;;
53642;SDS011;39546;45.534;12.048;2023-04-16T08:37:23;2.72;;;2.10;;
53642;SDS011;39546;45.534;12.048;2023-04-16T08:43:26;4.85;;;2.12;;
53642;SDS011;39546;45.534;12.048;2023-04-16T08:49:31;2.90;;;1.85;;
53642;SDS011;39546;45.534;12.048;2023-04-16T08:55:44;1.90;;;1.55;;
53642;SDS011;39546;45.534;12.048;2023-04-16T09:01:51;1.60;;;1.30;;
53642;SDS011;39546;45.534;12.048;2023-04-16T09:07:56;2.30;;;1.48;;
53642;SDS011;39546;45.534;12.048;2023-04-16T09:13:59;1.20;;;1.05;;
53642;SDS011;39546;45.534;12.048;2023-04-16T09:20:02;1.02;;;1.00;;
53642;SDS011;39546;45.534;12.048;2023-04-16T09:26:11;1.30;;;1.20;;
53642;SDS011;39546;45.534;12.048;2023-04-16T09:32:13;2.10;;;1.42;;
53642;SDS011;39546;45.534;12.048;2023-04-16T09:38:15;2.60;;;1.50;;
53642;SDS011;39546;45.534;12.048;2023-04-16T09:44:17;1.83;;;1.48;;
53642;SDS011;39546;45.534;12.048;2023-04-16T09:50:20;1.20;;;1.00;;
53642;SDS011;39546;45.534;12.048;2023-04-16T09:56:23;0.88;;;0.82;;
53642;SDS011;39546;45.534;12.048;2023-04-16T10:02:31;0.77;;;0.77;;
53642;SDS011;39546;45.534;12.048;2023-04-16T10:08:36;2.58;;;1.58;;
53642;SDS011;39546;45.534;12.048;2023-04-16T10:14:53;1.25;;;1.08;;
53642;SDS011;39546;45.534;12.048;2023-04-16T10:20:55;1.83;;;1.23;;
53642;SDS011;39546;45.534;12.048;2023-04-16T10:26:58;2.40;;;1.35;;
53642;SDS011;39546;45.534;12.048;2023-04-16T10:33:01;1.27;;;1.17;;
53642;SDS011;39546;45.534;12.048;2023-04-16T10:39:08;1.10;;;1.00;;
53642;SDS011;39546;45.534;12.048;2023-04-16T10:45:12;1.15;;;1.05;;
53642;SDS011;39546;45.534;12.048;2023-04-16T10:51:24;2.00;;;1.48;;
53642;SDS011;39546;45.534;12.048;2023-04-16T10:57:36;0.73;;;0.68;;
53642;SDS011;39546;45.534;12.048;2023-04-16T11:10:21;0.80;;;0.80;;
53642;SDS011;39546;45.534;12.048;2023-04-16T11:16:24;1.45;;;1.10;;
53642;SDS011;39546;45.534;12.048;2023-04-16T11:22:27;1.17;;;1.08;;
53642;SDS011;39546;45.534;12.048;2023-04-16T11:28:33;2.55;;;1.50;;
53642;SDS011;39546;45.534;12.048;2023-04-16T11:34:42;4.47;;;2.17;;
53642;SDS011;39546;45.534;12.048;2023-04-16T11:40:48;2.78;;;1.40;;
53642;SDS011;39546;45.534;12.048;2023-04-16T11:46:52;2.83;;;1.77;;
53642;SDS011;39546;45.534;12.048;2023-04-16T11:52:56;1.92;;;1.62;;
53642;SDS011;39546;45.534;12.048;2023-04-16T11:59:08;3.53;;;1.52;;
53642;SDS011;39546;45.534;12.048;2023-04-16T12:11:36;7.30;;;1.73;;
53642;SDS011;39546;45.534;12.048;2023-04-16T12:17:42;2.10;;;1.37;;
53642;SDS011;39546;45.534;12.048;2023-04-16T12:23:44;2.62;;;1.77;;
53642;SDS011;39546;45.534;12.048;2023-04-16T12:30:01;3.45;;;1.50;;
53642;SDS011;39546;45.534;12.048;2023-04-16T12:36:19;1.08;;;0.95;;
53642;SDS011;39546;45.534;12.048;2023-04-16T12:42:22;2.10;;;1.15;;
53642;SDS011;39546;45.534;12.048;2023-04-16T12:48:24;1.85;;;1.17;;
53642;SDS011;39546;45.534;12.048;2023-04-16T12:54:26;3.00;;;1.77;;
53642;SDS011;39546;45.534;12.048;2023-04-16T13:00:31;2.55;;;1.30;;
53642;SDS011;39546;45.534;12.048;2023-04-16T13:06:33;1.27;;;0.90;;
53642;SDS011;39546;45.534;12.048;2023-04-16T13:12:37;1.83;;;0.75;;
53642;SDS011;39546;45.534;12.048;2023-04-16T13:18:39;1.10;;;1.00;;
53642;SDS011;39546;45.534;12.048;2023-04-16T13:24:42;2.25;;;1.40;;
53642;SDS011;39546;45.534;12.048;2023-04-16T13:30:44;0.95;;;0.90;;
53642;SDS011;39546;45.534;12.048;2023-04-16T13:36:47;1.25;;;0.93;;
53642;SDS011;39546;45.534;12.048;2023-04-16T13:42:50;1.15;;;0.73;;
53642;SDS011;39546;45.534;12.048;2023-04-16T13:48:52;0.60;;;0.60;;
53642;SDS011;39546;45.534;12.048;2023-04-16T13:54:54;10.23;;;1.83;;
53642;SDS011;39546;45.534;12.048;2023-04-16T14:00:57;0.62;;;0.62;;
53642;SDS011;39546;45.534;12.048;2023-04-16T14:06:59;1.30;;;0.50;;
53642;SDS011;39546;45.534;12.048;2023-04-16T14:13:01;0.75;;;0.75;;
53642;SDS011;39546;45.534;12.048;2023-04-16T14:19:04;1.27;;;0.98;;
53642;SDS011;39546;45.534;12.048;2023-04-16T14:25:06;1.75;;;1.02;;
53642;SDS011;39546;45.534;12.048;2023-04-16T14:31:08;1.87;;;0.98;;
53642;SDS011;39546;45.534;12.048;2023-04-16T14:37:11;0.45;;;0.45;;
53642;SDS011;39546;45.534;12.048;2023-04-16T14:43:13;1.10;;;1.00;;
53642;SDS011;39546;45.534;12.048;2023-04-16T14:49:15;1.12;;;0.82;;
53642;SDS011;39546;45.534;12.048;2023-04-16T14:55:18;1.65;;;1.27;;
53642;SDS011;39546;45.534;12.048;2023-04-16T15:01:20;1.30;;;0.88;;
53642;SDS011;39546;45.534;12.048;2023-04-16T15:07:23;3.67;;;1.10;;
53642;SDS011;39546;45.534;12.048;2023-04-16T15:13:26;2.45;;;0.90;;
53642;SDS011;39546;45.534;12.048;2023-04-16T15:19:34;2.65;;;1.15;;
53642;SDS011;39546;45.534;12.048;2023-04-16T15:25:36;0.80;;;0.68;;
53642;SDS011;39546;45.534;12.048;2023-04-16T15:31:38;0.80;;;0.68;;
53642;SDS011;39546;45.534;12.048;2023-04-16T15:37:41;1.20;;;1.00;;
53642;SDS011;39546;45.534;12.048;2023-04-16T15:43:43;1.00;;;0.77;;
53642;SDS011;39546;45.534;12.048;2023-04-16T15:49:46;1.12;;;1.02;;
53642;SDS011;39546;45.534;12.048;2023-04-16T15:55:49;1.10;;;0.98;;
53642;SDS011;39546;45.534;12.048;2023-04-16T16:01:53;4.40;;;1.17;;
53642;SDS011;39546;45.534;12.048;2023-04-16T16:07:56;1.05;;;0.90;;
53642;SDS011;39546;45.534;12.048;2023-04-16T16:13:59;1.75;;;0.90;;
53642;SDS011;39546;45.534;12.048;2023-04-16T16:20:02;2.85;;;1.45;;
53642;SDS011;39546;45.534;12.048;2023-04-16T16:26:04;1.48;;;1.10;;
53642;SDS011;39546;45.534;12.048;2023-04-16T16:32:07;1.58;;;0.90;;
53642;SDS011;39546;45.534;12.048;2023-04-16T16:38:11;1.83;;;1.12;;
53642;SDS011;39546;45.534;12.048;2023-04-16T16:44:13;5.62;;;1.17;;
53642;SDS011;39546;45.534;12.048;2023-04-16T16:50:15;4.32;;;1.12;;
53642;SDS011;39546;45.534;12.048;2023-04-16T16:56:18;1.87;;;0.77;;
53642;SDS011;39546;45.534;12.048;2023-04-16T17:02:20;0.93;;;0.73;;
53642;SDS011;39546;45.534;12.048;2023-04-16T17:08:22;0.82;;;0.77;;
53642;SDS011;39546;45.534;12.048;2023-04-16T17:14:24;4.62;;;1.67;;
53642;SDS011;39546;45.534;12.048;2023-04-16T17:20:27;1.33;;;0.90;;
53642;SDS011;39546;45.534;12.048;2023-04-16T17:26:29;1.15;;;0.93;;
53642;SDS011;39546;45.534;12.048;2023-04-16T17:32:32;1.73;;;1.25;;
53642;SDS011;39546;45.534;12.048;2023-04-16T17:38:34;0.93;;;0.82;;
53642;SDS011;39546;45.534;12.048;2023-04-16T17:44:36;1.50;;;1.12;;
53642;SDS011;39546;45.534;12.048;2023-04-16T17:50:38;4.82;;;1.83;;
53642;SDS011;39546;45.534;12.048;2023-04-16T17:56:40;2.67;;;1.35;;
53642;SDS011;39546;45.534;12.048;2023-04-16T18:02:42;3.08;;;1.80;;
53642;SDS011;39546;45.534;12.048;2023-04-16T18:08:45;3.28;;;2.00;;
53642;SDS011;39546;45.534;12.048;2023-04-16T18:14:47;2.42;;;1.80;;
53642;SDS011;39546;45.534;12.048;2023-04-16T18:20:50;3.22;;;1.77;;
53642;SDS011;39546;45.534;12.048;2023-04-16T18:26:53;5.70;;;2.92;;
53642;SDS011;39546;45.534;12.048;2023-04-16T18:32:55;3.83;;;2.60;;
53642;SDS011;39546;45.534;12.048;2023-04-16T18:38:57;4.20;;;2.80;;
53642;SDS011;39546;45.534;12.048;2023-04-16T18:44:59;7.00;;;2.85;;
53642;SDS011;39546;45.534;12.048;2023-04-16T18:51:01;4.60;;;2.65;;
53642;SDS011;39546;45.534;12.048;2023-04-16T18:57:03;7.43;;;3.75;;
53642;SDS011;39546;45.534;12.048;2023-04-16T19:03:06;5.57;;;3.40;;
53642;SDS011;39546;45.534;12.048;2023-04-16T19:09:08;3.33;;;2.35;;
53642;SDS011;39546;45.534;12.048;2023-04-16T19:15:10;5.15;;;3.28;;
53642;SDS011;39546;45.534;12.048;2023-04-16T19:21:12;5.20;;;2.62;;
53642;SDS011;39546;45.534;12.048;2023-04-16T19:27:14;3.33;;;2.33;;
53642;SDS011;39546;45.534;12.048;2023-04-16T19:33:16;2.15;;;1.95;;
53642;SDS011;39546;45.534;12.048;2023-04-16T19:39:19;3.50;;;2.47;;
53642;SDS011;39546;45.534;12.048;2023-04-16T19:45:21;10.43;;;6.50;;
53642;SDS011;39546;45.534;12.048;2023-04-16T19:51:26;4.60;;;2.97;;
53642;SDS011;39546;45.534;12.048;2023-04-16T19:57:28;4.93;;;2.87;;
53642;SDS011;39546;45.534;12.048;2023-04-16T20:03:30;9.18;;;2.45;;
53642;SDS011;39546;45.534;12.048;2023-04-16T20:09:32;3.50;;;2.33;;
53642;SDS011;39546;45.534;12.048;2023-04-16T20:15:34;4.72;;;2.45;;
53642;SDS011;39546;45.534;12.048;2023-04-16T20:21:37;9.20;;;3.92;;
53642;SDS011;39546;45.534;12.048;2023-04-16T20:27:40;9.25;;;3.08;;
53642;SDS011;39546;45.534;12.048;2023-04-16T20:33:42;4.82;;;2.83;;
53642;SDS011;39546;45.534;12.048;2023-04-16T20:39:45;8.32;;;2.65;;
53642;SDS011;39546;45.534;12.048;2023-04-16T20:45:50;8.10;;;4.28;;
53642;SDS011;39546;45.534;12.048;2023-04-16T20:51:52;7.25;;;4.12;;
53642;SDS011;39546;45.534;12.048;2023-04-16T20:57:54;4.57;;;2.58;;
53642;SDS011;39546;45.534;12.048;2023-04-16T21:03:56;5.30;;;3.17;;
53642;SDS011;39546;45.534;12.048;2023-04-16T21:09:58;5.28;;;3.60;;
53642;SDS011;39546;45.534;12.048;2023-04-16T21:16:01;4.00;;;2.50;;
53642;SDS011;39546;45.534;12.048;2023-04-16T21:22:05;5.87;;;3.00;;
53642;SDS011;39546;45.534;12.048;2023-04-16T21:28:07;5.40;;;2.90;;
53642;SDS011;39546;45.534;12.048;2023-04-16T21:34:08;4.60;;;3.00;;
53642;SDS011;39546;45.534;12.048;2023-04-16T21:40:10;4.95;;;3.05;;
53642;SDS011;39546;45.534;12.048;2023-04-16T21:46:13;3.15;;;2.47;;
53642;SDS011;39546;45.534;12.048;2023-04-16T21:52:15;4.97;;;3.45;;
53642;SDS011;39546;45.534;12.048;2023-04-16T21:58:19;7.10;;;3.10;;
53642;SDS011;39546;45.534;12.048;2023-04-16T22:04:21;7.82;;;5.05;;
53642;SDS011;39546;45.534;12.048;2023-04-16T22:10:26;6.32;;;3.92;;
53642;SDS011;39546;45.534;12.048;2023-04-16T22:16:28;5.32;;;3.20;;
53642;SDS011;39546;45.534;12.048;2023-04-16T22:22:31;5.45;;;3.12;;
53642;SDS011;39546;45.534;12.048;2023-04-16T22:28:33;3.70;;;2.65;;
53642;SDS011;39546;45.534;12.048;2023-04-16T22:34:35;4.53;;;3.30;;
53642;SDS011;39546;45.534;12.048;2023-04-16T22:40:37;5.00;;;3.12;;
53642;SDS011;39546;45.534;12.048;2023-04-16T22:46:39;3.12;;;2.75;;
53642;SDS011;39546;45.534;12.048;2023-04-16T22:52:41;3.05;;;2.10;;
53642;SDS011;39546;45.534;12.048;2023-04-16T22:58:43;3.20;;;2.28;;
53642;SDS011;39546;45.534;12.048;2023-04-16T23:04:46;6.25;;;4.35;;
53642;SDS011;39546;45.534;12.048;2023-04-16T23:10:48;4.40;;;2.67;;
53642;SDS011;39546;45.534;12.048;2023-04-16T23:16:51;4.95;;;3.05;;
53642;SDS011;39546;45.534;12.048;2023-04-16T23:22:53;3.10;;;2.22;;
53642;SDS011;39546;45.534;12.048;2023-04-16T23:28:55;3.83;;;2.55;;
53642;SDS011;39546;45.534;12.048;2023-04-16T23:34:57;5.50;;;3.55;;
53642;SDS011;39546;45.534;12.048;2023-04-16T23:41:00;4.18;;;2.03;;
53642;SDS011;39546;45.534;12.048;2023-04-16T23:47:02;3.70;;;2.30;;
53642;SDS011;39546;45.534;12.048;2023-04-16T23:53:04;5.40;;;2.65;;
53642;SDS011;39546;45.534;12.048;2023-04-16T23:59:06;4.78;;;3.33;;
